Terminal Aerodrome Forecast
Issued by NWS

Home | Current Version | Previous Version | Text Only | Print | Product List | Glossary On
Versions: 1 2 3 4 5 6 7 8 9 10 11 12 13 14 15 16 17 18 19 20 21 22 23 24 25 26 27 28 29 30 31 32 33 34
000
FTUS43 KMKX 292043 AAA
TAFUES
TAF AMD
KUES 292043Z 2921/3018 14007KT P6SM SCT035 BKN200
     FM300300 VRB03KT P6SM SCT150
     FM300600 00000KT 5SM BR BKN080
     FM301300 00000KT P6SM BKN120=

USA.gov is the U.S. government's official web portal to all federal, state and local government web resources and services.